Camp Hill, AL (36850)

5:12 AM CDT on September 16, 2014 (GMT -0500)
Opelika, AL - Highland Ave. | Change Station
CLOSE
Current Station
Personal Weather Station
Location: Opelika, AL
Elevation: 856 ft
Nearby Weather Stations

Elev 856 ft 32.67 °N, 85.37 °W | Updated 24 seconds ago

Mostly Cloudy
Mostly Cloudy
70.7 °F
Feels Like 70.7 °F
N
0.0
Wind Variable Wind from SW
Gusts 0.0 mph

Today
High -- | Low -- °F
--% Chance of Precip.
Yesterday
High -- | Low -- °F
Precip. -- in
6:26 AM 6:47 PM
Waning Gibbous, 47% visible
Pressure 30.12 in
Visibility 8.0 miles
Clouds Clear
Dew Point 70 °F
Humidity 98%
Rainfall 0.00 in
Snow Depth Not available.
UV 0 out of 12
Pollen 8.00 out of 12
Ozone Good
PM2.5 Good
Flu Activity Not available.
METAR KAUO 160955Z 03004KT 8SM CLR 21/19 A3012 RMK AO1

More Conditions Fewer Conditions

Pressure 30.12 in
Visibility 8.0 miles
Clouds Clear
Dew Point 70 °F
Humidity 98%
Rainfall 0.00 in
Snow Depth Not available.
UV 0 out of 12
Pollen 8.00 out of 12
Ozone Good
PM2.5 Good
Flu Activity Not available.
METAR KAUO 160955Z 03004KT 8SM CLR 21/19 A3012 RMK AO1

More Conditions Fewer Conditions

10-Day Weather Forecast

Almanac

Astronomy

Sep. 16, 2014 Rise Set
Actual Time 6:26 AM CDT 6:47 PM CDT
Civil Twilight 6:01 AM CDT 7:11 PM CDT
Nautical Twilight 5:32 AM CDT 7:40 PM CDT
Astronomical Twilight 5:03 AM CDT 8:10 PM CDT
Moon No Moon Rise 1:56 PM CDT
Length of Visible Light 13h 09m
Length of Day
12h 20m
Tomorrow will be 2m 1s shorter.
Waning Gibbous, 47% of the Moon is Illuminated
Today
Waning Gibbous
Sep 24
New
Oct 1
First Quarter
Oct 8
Full
Oct 15
Last Quarter

Today's Extremes

State Highs State Lows

Community

WunderPhotos

Upload Photos

1,753,717 photos uploaded!

WunderBlogs® & News

Nearby

Air Quality

  Air Quality AQ Index Pollutant
Yesterday Good
PM10
Yesterday Good
OZONE
Current Good
PM2.5
Current Good
OZONE
Tuesday Moderate
PM2.5
Tuesday Good
OZONE

Snow Depth

Station Depth Elevation
No new snow has been reported.

Earthquake Activity

City Distance Mag. Time & Date
No recent earthquake activity has been reported nearby.
Minimum magnitude displayed is 2.5.

Coastal Water Temperatures

Place Temperature
No Stations Reporting

Nearby Weather Stations